Time;durP1;ratioP1;P1;durP2;ratioP2;P2;SDS_P1;SDS_P2;PMS_P1;PMS_P2;Temp;Humidity;BMP_temperature;BMP_pressure;BME280_temperature;BME280_humidity;BME280_pressure;Samples;Min_cycle;Max_cycle;Signal;HPM_P1;HPM_P2
2022/12/12 00:02:04;;;;;;;38.15;34.45;;;;;;;;;;5097337;28;20219;-83
2022/12/12 00:04:31;;;;;;;37.92;34.28;;;;;;;;;;5097415;28;20214;-82
2022/12/12 00:06:58;;;;;;;38.33;34.63;;;;;;;;;;5096740;28;20227;-83
2022/12/12 00:09:25;;;;;;;38.45;34.38;;;;;;;;;;5097931;28;20214;-82
2022/12/12 00:11:52;;;;;;;42.20;34.63;;;;;;;;;;5097371;28;20204;-83
2022/12/12 00:14:20;;;;;;;39.90;35.72;;;;;;;;;;5096510;28;20670;-83
2022/12/12 00:16:48;;;;;;;39.97;36.08;;;;;;;;;;5097294;28;20234;-83
2022/12/12 00:19:15;;;;;;;39.75;35.90;;;;;;;;;;5099983;28;20195;-82
2022/12/12 00:21:42;;;;;;;39.17;34.88;;;;;;;;;;5101135;28;20224;-83
2022/12/12 00:24:10;;;;;;;37.28;33.70;;;;;;;;;;5100501;28;20215;-84
2022/12/12 00:26:37;;;;;;;36.90;33.20;;;;;;;;;;5100081;28;20226;-83
2022/12/12 00:29:04;;;;;;;40.70;36.30;;;;;;;;;;5100644;28;20202;-82
2022/12/12 00:31:32;;;;;;;38.55;34.55;;;;;;;;;;5100853;28;20202;-83
2022/12/12 00:34:00;;;;;;;39.20;34.40;;;;;;;;;;5100535;28;20214;-82
2022/12/12 00:36:28;;;;;;;39.35;35.38;;;;;;;;;;5099662;28;20236;-81
2022/12/12 00:38:56;;;;;;;38.53;34.40;;;;;;;;;;5100592;28;20211;-83
2022/12/12 00:41:23;;;;;;;43.38;35.58;;;;;;;;;;5101098;28;20666;-82
2022/12/12 00:43:51;;;;;;;38.00;34.17;;;;;;;;;;5101323;28;20206;-83
2022/12/12 00:46:19;;;;;;;36.78;33.05;;;;;;;;;;5101172;28;20219;-84
2022/12/12 00:48:47;;;;;;;39.05;35.25;;;;;;;;;;5101790;28;20207;-82
2022/12/12 00:51:17;;;;;;;38.20;34.25;;;;;;;;;;5101554;28;20203;-84
2022/12/12 00:53:45;;;;;;;39.63;35.58;;;;;;;;;;5101603;28;20202;-82
2022/12/12 00:56:12;;;;;;;40.03;34.28;;;;;;;;;;5100550;28;20223;-83
2022/12/12 00:58:39;;;;;;;39.42;35.22;;;;;;;;;;5100789;28;20566;-82
2022/12/12 01:01:09;;;;;;;39.58;35.05;;;;;;;;;;5100573;28;20600;-81
2022/12/12 01:03:37;;;;;;;40.08;36.28;;;;;;;;;;5100501;28;20203;-82
2022/12/12 01:06:07;;;;;;;39.13;35.03;;;;;;;;;;5101346;28;20223;-82
2022/12/12 01:08:34;;;;;;;38.97;34.67;;;;;;;;;;5100078;28;20214;-82
2022/12/12 01:11:01;;;;;;;38.38;34.75;;;;;;;;;;5100787;28;20286;-83
2022/12/12 01:13:29;;;;;;;40.92;36.17;;;;;;;;;;5099627;28;20204;-82
2022/12/12 01:15:56;;;;;;;42.30;37.90;;;;;;;;;;5100569;28;20234;-82
2022/12/12 01:18:23;;;;;;;39.53;35.25;;;;;;;;;;5100007;28;20211;-83
2022/12/12 01:20:50;;;;;;;39.42;35.42;;;;;;;;;;5100943;28;20232;-82
2022/12/12 01:23:19;;;;;;;37.75;34.10;;;;;;;;;;5100398;28;20208;-82
2022/12/12 01:25:46;;;;;;;39.08;34.53;;;;;;;;;;5100897;28;20227;-82
2022/12/12 01:28:13;;;;;;;40.75;36.75;;;;;;;;;;5101237;28;20214;-83
2022/12/12 01:30:41;;;;;;;37.75;34.00;;;;;;;;;;5099360;28;20199;-82
2022/12/12 01:33:08;;;;;;;40.50;36.20;;;;;;;;;;5099974;28;20566;-82
2022/12/12 01:35:35;;;;;;;40.10;35.90;;;;;;;;;;5100305;28;20223;-83
2022/12/12 01:38:02;;;;;;;38.50;33.78;;;;;;;;;;5099653;28;20202;-84
2022/12/12 01:40:31;;;;;;;40.13;35.88;;;;;;;;;;5100464;28;20212;-83
2022/12/12 01:42:59;;;;;;;39.22;35.22;;;;;;;;;;5099593;28;20207;-84
2022/12/12 01:45:45;;;;;;;42.78;35.40;;;;;;;;;;5100444;28;20222;-83
2022/12/12 01:48:12;;;;;;;41.80;37.30;;;;;;;;;;5099632;28;20211;-82
2022/12/12 01:50:40;;;;;;;39.45;35.40;;;;;;;;;;5100122;28;20214;-83
2022/12/12 01:53:07;;;;;;;40.33;35.10;;;;;;;;;;5099853;28;20202;-83
2022/12/12 01:55:36;;;;;;;53.42;36.63;;;;;;;;;;5099746;28;20219;-82
2022/12/12 01:58:03;;;;;;;43.50;37.53;;;;;;;;;;5099122;28;20574;-83
2022/12/12 02:00:30;;;;;;;40.50;35.58;;;;;;;;;;5099612;28;20556;-82
2022/12/12 02:02:57;;;;;;;41.38;36.90;;;;;;;;;;5099501;28;20217;-82
2022/12/12 02:05:27;;;;;;;45.17;36.50;;;;;;;;;;5100037;28;20637;-84
2022/12/12 02:07:54;;;;;;;41.55;37.20;;;;;;;;;;5099641;28;20213;-82
2022/12/12 02:10:21;;;;;;;41.28;36.17;;;;;;;;;;5099122;28;20203;-82
2022/12/12 02:12:50;;;;;;;40.47;36.17;;;;;;;;;;5098377;28;20210;-83
2022/12/12 02:15:17;;;;;;;43.45;36.78;;;;;;;;;;5098434;28;20202;-83
2022/12/12 02:17:52;;;;;;;40.42;35.97;;;;;;;;;;5098386;28;20203;-84
2022/12/12 02:20:31;;;;;;;47.15;39.55;;;;;;;;;;5098649;28;20662;-83
2022/12/12 02:23:16;;;;;;;43.53;37.58;;;;;;;;;;5098314;28;20183;-83
2022/12/12 02:26:13;;;;;;;41.78;36.17;;;;;;;;;;5098081;28;20725;-82
2022/12/12 02:29:06;;;;;;;40.75;36.05;;;;;;;;;;5036354;28;20201;-82
2022/12/12 02:31:37;;;;;;;42.85;37.55;;;;;;;;;;5095208;28;20203;-82
2022/12/12 02:34:06;;;;;;;42.40;36.38;;;;;;;;;;5099015;28;20596;-82
2022/12/12 02:36:37;;;;;;;41.20;36.60;;;;;;;;;;5098013;28;20692;-81
2022/12/12 02:39:09;;;;;;;40.38;36.03;;;;;;;;;;5099343;28;20215;-82
2022/12/12 02:41:37;;;;;;;48.13;41.05;;;;;;;;;;5099680;28;20208;-85
2022/12/12 02:44:12;;;;;;;47.53;37.47;;;;;;;;;;5099249;28;20256;-82
2022/12/12 02:46:44;;;;;;;50.47;38.70;;;;;;;;;;5098782;28;20738;-83
2022/12/12 02:49:13;;;;;;;42.20;36.95;;;;;;;;;;5098306;28;20202;-82
2022/12/12 02:51:41;;;;;;;41.65;36.60;;;;;;;;;;5098242;28;20194;-83
2022/12/12 02:54:14;;;;;;;41.63;36.28;;;;;;;;;;5097647;28;20225;-82
2022/12/12 02:56:46;;;;;;;48.97;37.20;;;;;;;;;;5097329;28;20233;-82
2022/12/12 02:59:15;;;;;;;43.60;36.70;;;;;;;;;;5096892;28;20222;-82
2022/12/12 03:01:50;;;;;;;48.45;36.80;;;;;;;;;;5098139;28;20224;-83
2022/12/12 03:10:00;;;;;;;44.55;37.35;;;;;;;;;;5097366;28;20214;-82
2022/12/12 03:12:32;;;;;;;47.00;37.72;;;;;;;;;;5097547;28;20190;-82
2022/12/12 03:15:02;;;;;;;45.75;37.60;;;;;;;;;;5096630;28;20187;-84
2022/12/12 03:17:31;;;;;;;44.20;35.63;;;;;;;;;;5096845;28;20213;-82
2022/12/12 03:20:01;;;;;;;47.40;37.42;;;;;;;;;;5097749;28;20214;-82
2022/12/12 03:22:29;;;;;;;46.90;35.67;;;;;;;;;;5097835;28;20229;-82
2022/12/12 03:24:59;;;;;;;46.60;35.85;;;;;;;;;;5097235;28;20207;-82
2022/12/12 03:27:30;;;;;;;45.85;36.42;;;;;;;;;;5096129;28;20219;-81
2022/12/12 03:29:58;;;;;;;52.90;37.83;;;;;;;;;;5097567;28;20215;-82
2022/12/12 03:32:27;;;;;;;42.45;35.45;;;;;;;;;;5097353;28;20203;-82
2022/12/12 03:34:57;;;;;;;47.65;37.42;;;;;;;;;;5096340;28;20199;-82
2022/12/12 03:37:27;;;;;;;53.00;40.25;;;;;;;;;;5096391;28;20261;-81
2022/12/12 03:39:57;;;;;;;49.13;35.83;;;;;;;;;;5096625;28;20209;-82
2022/12/12 03:42:27;;;;;;;47.15;36.72;;;;;;;;;;5096768;28;20207;-82
2022/12/12 03:44:58;;;;;;;47.08;36.22;;;;;;;;;;5096019;28;20203;-83
2022/12/12 03:47:29;;;;;;;49.72;40.10;;;;;;;;;;5096100;28;20202;-83
2022/12/12 03:50:00;;;;;;;44.42;37.38;;;;;;;;;;5096932;28;20202;-82
2022/12/12 03:52:31;;;;;;;46.60;37.40;;;;;;;;;;5097451;28;20198;-82
2022/12/12 03:55:01;;;;;;;46.30;37.63;;;;;;;;;;5102427;28;20206;-81
2022/12/12 03:57:31;;;;;;;43.40;35.10;;;;;;;;;;5102683;28;20210;-83
2022/12/12 04:00:00;;;;;;;49.05;38.45;;;;;;;;;;5103831;28;20206;-82
2022/12/12 04:02:30;;;;;;;42.40;36.92;;;;;;;;;;5103702;28;20225;-81
2022/12/12 04:05:01;;;;;;;46.03;38.38;;;;;;;;;;5104363;28;20214;-82
2022/12/12 04:07:30;;;;;;;46.70;36.80;;;;;;;;;;5103318;28;20210;-83
2022/12/12 04:12:59;;;;;;;43.95;36.78;;;;;;;;;;5103568;28;20204;-83
2022/12/12 04:15:32;;;;;;;45.50;38.75;;;;;;;;;;5103634;28;20233;-82
2022/12/12 04:18:04;;;;;;;44.70;37.28;;;;;;;;;;5103881;28;20519;-82
2022/12/12 04:23:26;;;;;;;51.97;38.97;;;;;;;;;;5102801;28;20215;-82
2022/12/12 04:29:02;;;;;;;44.30;37.03;;;;;;;;;;5103583;28;20259;-82
2022/12/12 04:31:32;;;;;;;50.20;36.90;;;;;;;;;;5102952;28;20680;-84
2022/12/12 04:34:07;;;;;;;44.33;36.97;;;;;;;;;;5103197;28;20202;-83
2022/12/12 04:36:36;;;;;;;43.53;34.42;;;;;;;;;;5103661;28;20218;-81
2022/12/12 04:39:04;;;;;;;37.17;33.33;;;;;;;;;;5103008;28;20681;-82
2022/12/12 04:41:33;;;;;;;44.80;36.85;;;;;;;;;;5103611;28;20221;-82
2022/12/12 04:44:01;;;;;;;42.28;35.80;;;;;;;;;;5102411;28;20214;-82
2022/12/12 04:46:29;;;;;;;44.03;36.40;;;;;;;;;;5102747;28;20272;-83
2022/12/12 04:48:57;;;;;;;41.55;35.25;;;;;;;;;;5103602;28;20205;-83
2022/12/12 04:51:26;;;;;;;46.85;36.28;;;;;;;;;;5103796;28;20203;-82
2022/12/12 04:53:57;;;;;;;39.72;34.33;;;;;;;;;;5102465;28;20202;-82
2022/12/12 04:56:27;;;;;;;39.45;33.90;;;;;;;;;;5102593;28;20268;-82
2022/12/12 04:58:55;;;;;;;40.50;34.65;;;;;;;;;;5103270;28;20674;-83
2022/12/12 05:01:23;;;;;;;37.88;33.83;;;;;;;;;;5103568;28;20234;-81
2022/12/12 05:03:53;;;;;;;42.00;34.22;;;;;;;;;;5102212;28;20218;-82
2022/12/12 05:06:22;;;;;;;41.00;35.55;;;;;;;;;;5098445;28;20575;-83
2022/12/12 05:08:50;;;;;;;39.72;35.25;;;;;;;;;;5100071;28;20217;-83
2022/12/12 05:11:20;;;;;;;35.03;31.55;;;;;;;;;;5099778;28;20286;-82
2022/12/12 05:13:48;;;;;;;38.65;32.38;;;;;;;;;;5099640;28;20219;-81
2022/12/12 05:16:19;;;;;;;45.22;33.92;;;;;;;;;;5099719;28;20254;-84
2022/12/12 05:18:46;;;;;;;35.58;31.77;;;;;;;;;;5099608;28;20210;-83
2022/12/12 05:21:13;;;;;;;37.25;33.25;;;;;;;;;;5099919;28;20207;-83
2022/12/12 05:23:40;;;;;;;38.75;33.58;;;;;;;;;;5098231;28;20245;-83
2022/12/12 05:26:08;;;;;;;37.45;33.63;;;;;;;;;;5099559;28;20226;-82
2022/12/12 05:28:37;;;;;;;38.72;34.00;;;;;;;;;;5099069;28;20207;-83
2022/12/12 05:31:04;;;;;;;35.97;31.90;;;;;;;;;;5099334;28;20199;-82
2022/12/12 05:33:31;;;;;;;36.20;32.22;;;;;;;;;;5099327;28;20198;-83
2022/12/12 05:35:58;;;;;;;35.33;31.52;;;;;;;;;;5099702;28;20233;-82
2022/12/12 05:38:25;;;;;;;38.75;34.28;;;;;;;;;;5099289;28;20207;-82
2022/12/12 05:40:53;;;;;;;37.75;33.70;;;;;;;;;;5098964;28;20297;-82
2022/12/12 05:43:20;;;;;;;42.25;35.28;;;;;;;;;;5098750;28;20231;-83
2022/12/12 05:45:48;;;;;;;40.97;35.72;;;;;;;;;;5099454;28;20234;-81
2022/12/12 05:48:15;;;;;;;38.08;34.08;;;;;;;;;;5099113;28;20206;-82
2022/12/12 05:50:42;;;;;;;35.80;32.08;;;;;;;;;;5099127;28;20211;-82
2022/12/12 05:53:09;;;;;;;36.42;33.03;;;;;;;;;;5098366;28;20207;-83
2022/12/12 05:55:36;;;;;;;67.78;44.22;;;;;;;;;;5098308;28;20224;-83
2022/12/12 05:58:04;;;;;;;36.67;32.67;;;;;;;;;;5098755;28;20221;-82
2022/12/12 06:00:31;;;;;;;36.35;32.28;;;;;;;;;;5099065;28;20214;-82
2022/12/12 06:02:59;;;;;;;37.20;32.30;;;;;;;;;;5098915;28;20219;-82
2022/12/12 06:05:26;;;;;;;38.80;32.85;;;;;;;;;;5098115;28;20223;-83
2022/12/12 06:07:53;;;;;;;36.30;32.40;;;;;;;;;;5098708;28;20203;-83
2022/12/12 06:10:21;;;;;;;50.00;36.35;;;;;;;;;;5099083;28;20211;-82
2022/12/12 06:12:48;;;;;;;56.80;39.80;;;;;;;;;;5099041;28;20669;-83
2022/12/12 06:15:15;;;;;;;80.88;50.05;;;;;;;;;;5097649;28;20207;-83
2022/12/12 06:17:42;;;;;;;90.50;52.92;;;;;;;;;;5097998;28;20206;-81
2022/12/12 06:20:11;;;;;;;39.95;34.95;;;;;;;;;;5098784;28;20203;-81
2022/12/12 06:22:38;;;;;;;36.65;33.03;;;;;;;;;;5098468;28;20216;-82
2022/12/12 06:25:06;;;;;;;33.90;30.52;;;;;;;;;;5097923;28;20203;-82
2022/12/12 06:27:33;;;;;;;34.63;30.92;;;;;;;;;;5097409;28;20203;-84
2022/12/12 06:30:00;;;;;;;32.63;29.13;;;;;;;;;;5098217;28;20611;-83
2022/12/12 06:32:28;;;;;;;40.33;36.50;;;;;;;;;;5098551;28;20205;-82
2022/12/12 06:34:55;;;;;;;34.30;31.10;;;;;;;;;;5097966;28;20214;-84
2022/12/12 06:37:23;;;;;;;34.85;31.35;;;;;;;;;;5098182;28;21618;-84
2022/12/12 06:39:51;;;;;;;39.05;34.90;;;;;;;;;;5098941;28;20211;-82
2022/12/12 06:42:18;;;;;;;38.65;34.67;;;;;;;;;;5099228;28;20223;-83
2022/12/12 06:44:45;;;;;;;33.78;30.67;;;;;;;;;;5098143;28;20205;-83
2022/12/12 06:47:12;;;;;;;34.25;30.50;;;;;;;;;;5098608;28;20218;-83
2022/12/12 06:49:39;;;;;;;36.75;30.63;;;;;;;;;;5098503;28;20213;-83
2022/12/12 06:52:06;;;;;;;34.05;30.85;;;;;;;;;;5098502;28;20705;-82
2022/12/12 06:54:36;;;;;;;36.13;32.30;;;;;;;;;;5097472;28;20207;-83
2022/12/12 06:57:05;;;;;;;33.88;30.65;;;;;;;;;;5097916;28;20234;-83
2022/12/12 06:59:32;;;;;;;33.75;30.33;;;;;;;;;;5097557;28;20194;-82
2022/12/12 07:02:00;;;;;;;34.97;31.50;;;;;;;;;;5099153;28;20183;-83
2022/12/12 07:04:27;;;;;;;34.03;30.75;;;;;;;;;;5099387;28;20238;-83
2022/12/12 07:06:54;;;;;;;37.53;33.45;;;;;;;;;;5099432;28;20229;-83
2022/12/12 07:09:21;;;;;;;35.22;31.65;;;;;;;;;;5099558;28;20214;-82
2022/12/12 07:11:50;;;;;;;36.38;32.58;;;;;;;;;;5099164;28;20229;-82
2022/12/12 07:14:17;;;;;;;33.65;30.25;;;;;;;;;;5098818;28;20199;-83
2022/12/12 07:16:44;;;;;;;34.35;30.63;;;;;;;;;;5098516;28;20253;-82
2022/12/12 07:19:11;;;;;;;33.97;30.48;;;;;;;;;;5098698;28;20208;-81
2022/12/12 07:21:38;;;;;;;55.75;44.00;;;;;;;;;;5082176;28;20564;-83
2022/12/12 07:24:06;;;;;;;35.95;32.35;;;;;;;;;;5076767;28;20235;-81
2022/12/12 07:26:33;;;;;;;37.00;32.03;;;;;;;;;;5077490;28;20582;-81
2022/12/12 07:29:04;;;;;;;37.22;33.30;;;;;;;;;;5077391;28;20212;-81
2022/12/12 07:31:31;;;;;;;35.08;31.67;;;;;;;;;;5077586;28;20224;-81
2022/12/12 07:33:58;;;;;;;34.40;30.83;;;;;;;;;;5073158;28;20252;-78
2022/12/12 07:36:25;;;;;;;36.28;32.38;;;;;;;;;;5072363;28;20307;-79
2022/12/12 07:38:52;;;;;;;39.03;33.30;;;;;;;;;;5073108;28;20204;-78
2022/12/12 07:41:20;;;;;;;35.13;31.40;;;;;;;;;;5074967;28;20200;-79
2022/12/12 07:43:48;;;;;;;36.83;33.22;;;;;;;;;;5072883;28;20224;-79
2022/12/12 07:46:18;;;;;;;36.65;33.05;;;;;;;;;;5073927;28;20224;-78
2022/12/12 07:48:45;;;;;;;39.05;34.85;;;;;;;;;;5073086;28;20203;-78
2022/12/12 07:51:13;;;;;;;35.63;32.13;;;;;;;;;;5073129;28;20210;-78
2022/12/12 07:53:40;;;;;;;39.15;35.08;;;;;;;;;;5072370;28;20281;-77
2022/12/12 07:56:07;;;;;;;34.80;31.80;;;;;;;;;;5072935;28;20228;-78
2022/12/12 07:58:34;;;;;;;33.25;30.20;;;;;;;;;;5072369;28;20223;-79
2022/12/12 08:01:01;;;;;;;33.70;30.65;;;;;;;;;;5072931;28;20212;-78
2022/12/12 08:03:30;;;;;;;32.50;29.42;;;;;;;;;;5072463;28;20226;-77
2022/12/12 08:05:57;;;;;;;31.58;28.60;;;;;;;;;;5072951;28;20559;-78
2022/12/12 08:08:24;;;;;;;32.85;29.85;;;;;;;;;;5073208;28;20204;-79
2022/12/12 08:10:51;;;;;;;31.77;28.63;;;;;;;;;;5073300;28;20215;-79
2022/12/12 08:13:18;;;;;;;29.55;27.02;;;;;;;;;;5072661;28;20207;-77
2022/12/12 08:15:45;;;;;;;31.02;28.42;;;;;;;;;;5072550;28;20221;-77
2022/12/12 08:18:12;;;;;;;30.10;27.50;;;;;;;;;;5072926;28;20550;-77
2022/12/12 08:20:41;;;;;;;30.55;28.05;;;;;;;;;;5073333;28;20206;-78
2022/12/12 08:23:08;;;;;;;30.30;27.50;;;;;;;;;;5072657;28;20228;-78
2022/12/12 08:25:36;;;;;;;30.02;27.40;;;;;;;;;;5072718;28;20224;-79
2022/12/12 08:28:03;;;;;;;29.70;27.10;;;;;;;;;;5072102;28;20290;-78
2022/12/12 08:30:30;;;;;;;30.48;27.70;;;;;;;;;;5073070;28;20208;-78
2022/12/12 08:32:57;;;;;;;36.75;33.00;;;;;;;;;;5072834;28;20664;-79
2022/12/12 08:35:24;;;;;;;37.97;33.92;;;;;;;;;;5072647;28;20236;-79
2022/12/12 08:37:52;;;;;;;36.75;33.17;;;;;;;;;;5073710;28;20209;-79
2022/12/12 08:40:19;;;;;;;32.20;29.10;;;;;;;;;;5075799;28;20212;-79
2022/12/12 08:42:46;;;;;;;31.80;29.10;;;;;;;;;;5076922;28;20236;-78
2022/12/12 08:45:13;;;;;;;32.15;29.42;;;;;;;;;;5075835;28;20203;-78
2022/12/12 08:47:40;;;;;;;33.33;30.00;;;;;;;;;;5076329;28;20207;-79
2022/12/12 08:50:08;;;;;;;34.22;30.73;;;;;;;;;;5076314;28;20203;-77
2022/12/12 08:52:35;;;;;;;32.60;29.60;;;;;;;;;;5076797;28;20253;-78
2022/12/12 08:55:03;;;;;;;30.05;27.50;;;;;;;;;;5075887;28;20211;-79
2022/12/12 08:57:30;;;;;;;39.05;34.53;;;;;;;;;;5075614;28;20834;-79
2022/12/12 08:59:58;;;;;;;33.50;30.13;;;;;;;;;;5076314;28;20203;-78
2022/12/12 09:02:25;;;;;;;31.42;28.58;;;;;;;;;;5075779;28;20207;-78
2022/12/12 09:04:52;;;;;;;32.05;29.10;;;;;;;;;;5076009;28;20209;-79
2022/12/12 09:07:19;;;;;;;27.58;24.90;;;;;;;;;;5074792;28;20225;-77
2022/12/12 09:09:46;;;;;;;30.35;27.33;;;;;;;;;;5075810;28;20207;-79
2022/12/12 09:12:15;;;;;;;27.35;24.77;;;;;;;;;;5078610;28;20601;-84
2022/12/12 09:14:42;;;;;;;30.35;27.67;;;;;;;;;;5077538;28;20200;-83
2022/12/12 09:17:09;;;;;;;31.27;28.13;;;;;;;;;;5075735;28;20641;-78
2022/12/12 09:19:36;;;;;;;30.20;27.48;;;;;;;;;;5074760;28;20660;-78
2022/12/12 09:22:03;;;;;;;32.03;29.17;;;;;;;;;;5075253;28;20207;-79
2022/12/12 09:24:30;;;;;;;31.30;28.52;;;;;;;;;;5075178;28;20219;-79
2022/12/12 09:26:58;;;;;;;31.05;28.55;;;;;;;;;;5075475;28;20226;-78
2022/12/12 09:29:27;;;;;;;30.40;27.80;;;;;;;;;;5075190;28;20684;-78
2022/12/12 09:31:54;;;;;;;31.70;28.70;;;;;;;;;;5075568;28;20233;-77
2022/12/12 09:34:21;;;;;;;33.03;30.08;;;;;;;;;;5074925;28;20215;-78
2022/12/12 09:36:48;;;;;;;31.00;28.45;;;;;;;;;;5075449;28;20224;-79
2022/12/12 09:39:15;;;;;;;31.65;28.40;;;;;;;;;;5075222;28;20222;-77
2022/12/12 09:41:42;;;;;;;31.77;28.58;;;;;;;;;;5075415;28;20204;-79
2022/12/12 09:44:11;;;;;;;29.40;26.58;;;;;;;;;;5074735;28;20619;-79
2022/12/12 09:46:41;;;;;;;31.42;28.38;;;;;;;;;;5075250;28;20219;-77
2022/12/12 09:49:13;;;;;;;31.40;28.65;;;;;;;;;;5075179;28;20207;-77
2022/12/12 09:51:41;;;;;;;30.85;28.27;;;;;;;;;;5074400;28;20196;-77
2022/12/12 09:54:10;;;;;;;29.38;26.98;;;;;;;;;;5074538;28;20204;-78
2022/12/12 09:56:42;;;;;;;31.95;28.80;;;;;;;;;;5074808;28;20587;-79
2022/12/12 09:59:12;;;;;;;29.23;26.63;;;;;;;;;;5074739;28;20194;-78
2022/12/12 10:01:46;;;;;;;32.70;29.88;;;;;;;;;;5074966;28;20184;-78
2022/12/12 10:04:16;;;;;;;30.63;28.00;;;;;;;;;;5074458;28;20207;-77
2022/12/12 10:06:47;;;;;;;31.13;28.30;;;;;;;;;;5074939;28;20277;-78
2022/12/12 10:09:27;;;;;;;31.40;28.77;;;;;;;;;;5074887;28;20196;-78
2022/12/12 10:11:55;;;;;;;29.80;27.20;;;;;;;;;;5074739;28;20188;-78
2022/12/12 10:14:27;;;;;;;30.52;27.80;;;;;;;;;;5074183;28;20211;-78
2022/12/12 10:16:55;;;;;;;31.10;28.17;;;;;;;;;;5074658;28;20228;-79
2022/12/12 10:19:24;;;;;;;30.38;27.80;;;;;;;;;;5074657;28;20210;-78
2022/12/12 10:21:52;;;;;;;29.25;26.50;;;;;;;;;;5074470;28;20207;-78
2022/12/12 10:24:24;;;;;;;31.02;28.30;;;;;;;;;;5073978;28;20224;-78
2022/12/12 10:26:51;;;;;;;30.67;27.63;;;;;;;;;;5073829;28;20223;-77
2022/12/12 10:29:19;;;;;;;29.80;27.30;;;;;;;;;;5076556;28;20201;-86
2022/12/12 10:31:49;;;;;;;30.90;27.80;;;;;;;;;;5097214;28;20207;-76
2022/12/12 10:34:24;;;;;;;30.15;27.55;;;;;;;;;;5098387;28;20207;-84
2022/12/12 10:37:00;;;;;;;31.27;28.27;;;;;;;;;;5102067;28;20226;-81
2022/12/12 10:39:31;;;;;;;31.45;28.42;;;;;;;;;;5102279;28;20693;-81
2022/12/12 10:42:00;;;;;;;29.52;26.80;;;;;;;;;;5102134;28;20540;-82
2022/12/12 10:44:37;;;;;;;31.70;28.55;;;;;;;;;;5101682;28;20239;-81
2022/12/12 10:47:05;;;;;;;30.40;27.80;;;;;;;;;;5101248;28;20230;-82
2022/12/12 10:49:34;;;;;;;33.25;29.80;;;;;;;;;;5102026;28;20204;-80
2022/12/12 10:52:03;;;;;;;32.35;29.30;;;;;;;;;;5101511;28;20214;-82
2022/12/12 10:54:32;;;;;;;31.25;28.45;;;;;;;;;;5098313;28;20196;-80
2022/12/12 10:57:20;;;;;;;31.63;28.67;;;;;;;;;;5100119;28;20235;-83
2022/12/12 10:59:50;;;;;;;32.00;28.98;;;;;;;;;;5094689;28;20204;-91
2022/12/12 11:02:26;;;;;;;33.45;29.88;;;;;;;;;;5099081;28;20214;-81
2022/12/12 11:04:59;;;;;;;30.67;27.85;;;;;;;;;;5099673;28;20223;-83
2022/12/12 11:07:27;;;;;;;30.67;27.65;;;;;;;;;;5100082;28;20211;-82
2022/12/12 11:09:56;;;;;;;30.15;27.05;;;;;;;;;;5100676;28;20203;-82
2022/12/12 11:12:32;;;;;;;31.17;28.30;;;;;;;;;;5100772;28;20200;-82
2022/12/12 11:15:02;;;;;;;31.38;28.55;;;;;;;;;;5099787;28;20205;-81
2022/12/12 11:17:31;;;;;;;34.03;31.00;;;;;;;;;;5099870;28;20218;-82
2022/12/12 11:20:00;;;;;;;31.75;28.88;;;;;;;;;;5099966;28;20184;-82
2022/12/12 11:22:27;;;;;;;31.75;28.85;;;;;;;;;;5098722;28;20216;-84
2022/12/12 11:24:55;;;;;;;30.70;27.90;;;;;;;;;;5097912;28;20218;-83
2022/12/12 11:27:27;;;;;;;31.02;28.23;;;;;;;;;;5098625;28;20228;-83
2022/12/12 11:29:55;;;;;;;31.17;28.30;;;;;;;;;;5099115;28;20638;-84
2022/12/12 11:32:24;;;;;;;28.95;26.45;;;;;;;;;;5099304;28;20207;-84
2022/12/12 11:34:53;;;;;;;31.80;28.88;;;;;;;;;;5097072;28;20211;-83
2022/12/12 11:37:23;;;;;;;33.67;30.25;;;;;;;;;;5098071;28;20220;-84
2022/12/12 11:39:51;;;;;;;30.48;27.77;;;;;;;;;;5098212;28;20208;-84
2022/12/12 11:42:20;;;;;;;32.33;29.02;;;;;;;;;;5097330;28;20621;-76
2022/12/12 11:44:57;;;;;;;31.55;28.73;;;;;;;;;;5092666;28;20231;-75
2022/12/12 11:47:24;;;;;;;30.50;27.60;;;;;;;;;;5092743;28;20700;-76
2022/12/12 11:49:52;;;;;;;30.88;28.40;;;;;;;;;;5092986;28;20202;-76
2022/12/12 11:52:20;;;;;;;34.80;31.40;;;;;;;;;;5093192;28;20204;-75
2022/12/12 11:54:49;;;;;;;30.77;28.13;;;;;;;;;;5092235;28;20207;-76
2022/12/12 11:57:24;;;;;;;30.40;27.80;;;;;;;;;;5092868;28;20239;-76
2022/12/12 12:00:05;;;;;;;29.20;26.90;;;;;;;;;;5092727;28;20198;-75
2022/12/12 12:02:55;;;;;;;34.63;31.02;;;;;;;;;;5092920;28;20192;-76
2022/12/12 12:05:25;;;;;;;31.63;28.70;;;;;;;;;;5092109;28;20226;-76
2022/12/12 12:08:00;;;;;;;29.17;26.65;;;;;;;;;;5092775;28;20211;-76
2022/12/12 12:10:36;;;;;;;30.02;27.38;;;;;;;;;;5092482;28;20647;-76
2022/12/12 12:13:10;;;;;;;31.02;28.27;;;;;;;;;;5092438;28;20184;-75
2022/12/12 12:15:41;;;;;;;29.52;26.92;;;;;;;;;;5094622;28;20364;-75
2022/12/12 12:18:28;;;;;;;29.83;27.30;;;;;;;;;;5096803;28;20226;-75
2022/12/12 12:21:14;;;;;;;30.15;27.55;;;;;;;;;;5096527;28;20192;-75
2022/12/12 12:23:45;;;;;;;28.80;26.50;;;;;;;;;;5096134;28;20285;-75
2022/12/12 12:26:15;;;;;;;30.25;27.50;;;;;;;;;;5096265;28;20224;-76
2022/12/12 12:28:52;;;;;;;30.80;28.00;;;;;;;;;;5096804;28;20215;-74
2022/12/12 12:31:24;;;;;;;29.67;27.10;;;;;;;;;;5096612;28;20192;-74
2022/12/12 12:33:59;;;;;;;29.77;27.02;;;;;;;;;;5096140;28;20184;-75
2022/12/12 12:36:28;;;;;;;27.90;25.50;;;;;;;;;;5096510;28;20310;-75
2022/12/12 12:38:57;;;;;;;29.45;27.10;;;;;;;;;;5096065;28;20211;-75
2022/12/12 12:41:31;;;;;;;30.25;27.45;;;;;;;;;;5096545;28;20188;-75
2022/12/12 12:44:05;;;;;;;29.65;27.13;;;;;;;;;;5095496;28;20230;-75
2022/12/12 12:46:37;;;;;;;31.17;28.38;;;;;;;;;;5096375;28;20310;-74
2022/12/12 12:49:08;;;;;;;30.60;27.95;;;;;;;;;;5095453;28;20203;-75
2022/12/12 12:51:37;;;;;;;33.08;30.25;;;;;;;;;;5095867;28;20194;-75
2022/12/12 12:54:06;;;;;;;30.25;27.55;;;;;;;;;;5095157;28;20204;-75
2022/12/12 12:56:35;;;;;;;30.88;28.42;;;;;;;;;;5096169;28;20304;-75
2022/12/12 12:59:05;;;;;;;29.15;26.65;;;;;;;;;;5096742;28;20554;-74
2022/12/12 13:01:34;;;;;;;28.00;25.50;;;;;;;;;;5095867;28;20729;-76
2022/12/12 13:04:03;;;;;;;28.17;25.75;;;;;;;;;;5094643;28;20272;-75
2022/12/12 13:06:36;;;;;;;28.15;25.45;;;;;;;;;;5095949;28;20281;-75
2022/12/12 13:09:07;;;;;;;28.42;25.95;;;;;;;;;;5095876;28;20193;-75
2022/12/12 13:11:36;;;;;;;28.80;26.38;;;;;;;;;;5094541;28;20245;-75
2022/12/12 13:14:10;;;;;;;29.35;26.90;;;;;;;;;;5094322;28;20569;-75
2022/12/12 13:16:37;;;;;;;29.38;26.83;;;;;;;;;;5095446;28;20242;-76
2022/12/12 13:19:06;;;;;;;28.70;26.17;;;;;;;;;;5095622;28;20233;-75
2022/12/12 13:21:36;;;;;;;27.85;25.67;;;;;;;;;;5095150;28;20208;-75
2022/12/12 13:24:06;;;;;;;28.60;25.88;;;;;;;;;;5089278;28;20224;-76
2022/12/12 13:26:39;;;;;;;30.17;27.67;;;;;;;;;;5094261;28;20579;-75
2022/12/12 13:29:11;;;;;;;28.58;26.33;;;;;;;;;;5095519;28;20200;-76
2022/12/12 13:31:54;;;;;;;29.90;27.25;;;;;;;;;;5095021;28;20666;-75
2022/12/12 13:34:23;;;;;;;30.20;27.67;;;;;;;;;;5094497;28;20203;-76
2022/12/12 13:36:52;;;;;;;28.30;26.00;;;;;;;;;;5095274;28;20218;-75
2022/12/12 13:39:25;;;;;;;28.45;25.77;;;;;;;;;;5094891;28;20223;-75
2022/12/12 13:41:58;;;;;;;28.42;25.90;;;;;;;;;;5094699;28;20212;-76
2022/12/12 13:44:33;;;;;;;29.17;26.65;;;;;;;;;;5092763;28;20223;-76
2022/12/12 13:47:00;;;;;;;28.13;25.33;;;;;;;;;;5094912;28;20230;-75
2022/12/12 13:49:41;;;;;;;27.85;25.38;;;;;;;;;;5095205;28;20192;-75
2022/12/12 13:52:21;;;;;;;30.65;27.95;;;;;;;;;;5094647;28;20590;-75
2022/12/12 13:54:48;;;;;;;29.35;26.85;;;;;;;;;;5094182;28;20663;-75
2022/12/12 13:57:24;;;;;;;28.88;26.02;;;;;;;;;;5093944;28;20232;-76
2022/12/12 14:00:09;;;;;;;30.27;27.67;;;;;;;;;;5094400;28;20667;-75
2022/12/12 14:02:37;;;;;;;30.38;27.70;;;;;;;;;;5094759;28;20215;-75
2022/12/12 14:05:10;;;;;;;29.45;26.92;;;;;;;;;;5093870;28;20218;-75
2022/12/12 14:07:37;;;;;;;31.00;28.25;;;;;;;;;;5096200;28;20207;-79
2022/12/12 14:10:17;;;;;;;32.40;29.40;;;;;;;;;;5097762;28;20207;-80
2022/12/12 14:12:45;;;;;;;31.92;28.92;;;;;;;;;;5097630;28;20523;-80
2022/12/12 14:15:19;;;;;;;32.70;29.60;;;;;;;;;;5096040;28;20199;-79
2022/12/12 14:17:52;;;;;;;31.63;28.92;;;;;;;;;;5097340;28;20199;-79
2022/12/12 14:20:30;;;;;;;33.78;30.48;;;;;;;;;;5096993;28;20187;-79
2022/12/12 14:23:08;;;;;;;35.78;32.50;;;;;;;;;;5095811;28;20216;-80
2022/12/12 14:25:37;;;;;;;34.97;31.40;;;;;;;;;;5098627;28;20609;-79
2022/12/12 14:28:19;;;;;;;31.17;28.58;;;;;;;;;;5098507;28;20216;-79
2022/12/12 14:30:49;;;;;;;33.17;30.08;;;;;;;;;;5093967;28;20220;-78
2022/12/12 14:33:33;;;;;;;32.15;29.25;;;;;;;;;;5095932;28;20206;-85
2022/12/12 14:36:02;;;;;;;32.33;29.33;;;;;;;;;;5098047;28;20214;-80
2022/12/12 14:38:35;;;;;;;32.50;29.55;;;;;;;;;;5098545;28;20565;-79
2022/12/12 14:41:04;;;;;;;32.28;29.38;;;;;;;;;;5098863;28;20193;-80
2022/12/12 14:43:35;;;;;;;33.53;30.33;;;;;;;;;;5097289;28;20211;-80
2022/12/12 14:46:05;;;;;;;35.88;32.47;;;;;;;;;;5097635;28;20226;-80